sensor_id;sensor_type;location;lat;lon;timestamp;temperature;humidity
3406;DHT22;10008;48.682;9.016;2024-03-02T00:00:16;5.90;99.90
3406;DHT22;10008;48.682;9.016;2024-03-02T00:02:42;6.10;99.90
3406;DHT22;10008;48.682;9.016;2024-03-02T00:05:11;6.10;99.90
3406;DHT22;10008;48.682;9.016;2024-03-02T00:07:37;6.10;99.90
3406;DHT22;10008;48.682;9.016;2024-03-02T00:10:09;6.20;99.90
3406;DHT22;10008;48.682;9.016;2024-03-02T00:12:41;6.20;99.90
3406;DHT22;10008;48.682;9.016;2024-03-02T00:17:57;6.30;99.90
3406;DHT22;10008;48.682;9.016;2024-03-02T00:20:24;6.30;99.90
3406;DHT22;10008;48.682;9.016;2024-03-02T00:23:02;6.30;99.90
3406;DHT22;10008;48.682;9.016;2024-03-02T00:25:37;6.30;99.90
3406;DHT22;10008;48.682;9.016;2024-03-02T00:28:04;6.30;99.90
3406;DHT22;10008;48.682;9.016;2024-03-02T00:33:16;6.40;99.90
3406;DHT22;10008;48.682;9.016;2024-03-02T00:35:44;6.50;99.90
3406;DHT22;10008;48.682;9.016;2024-03-02T00:38:10;6.50;99.90
3406;DHT22;10008;48.682;9.016;2024-03-02T00:40:36;6.50;99.90
3406;DHT22;10008;48.682;9.016;2024-03-02T00:43:02;6.60;99.90
3406;DHT22;10008;48.682;9.016;2024-03-02T00:45:29;6.50;99.90
3406;DHT22;10008;48.682;9.016;2024-03-02T00:47:55;6.50;99.90
3406;DHT22;10008;48.682;9.016;2024-03-02T00:50:21;6.50;99.90
3406;DHT22;10008;48.682;9.016;2024-03-02T00:52:47;6.50;99.90
3406;DHT22;10008;48.682;9.016;2024-03-02T00:55:16;6.50;99.90
3406;DHT22;10008;48.682;9.016;2024-03-02T00:57:42;6.50;99.90
3406;DHT22;10008;48.682;9.016;2024-03-02T01:00:08;6.40;99.90
3406;DHT22;10008;48.682;9.016;2024-03-02T01:02:37;6.40;99.90
3406;DHT22;10008;48.682;9.016;2024-03-02T01:05:03;6.40;99.90
3406;DHT22;10008;48.682;9.016;2024-03-02T01:07:30;6.30;99.90
3406;DHT22;10008;48.682;9.016;2024-03-02T01:09:56;6.30;99.90
3406;DHT22;10008;48.682;9.016;2024-03-02T01:12:22;6.20;99.90
3406;DHT22;10008;48.682;9.016;2024-03-02T01:14:47;6.20;99.90
3406;DHT22;10008;48.682;9.016;2024-03-02T01:17:13;6.30;99.90
3406;DHT22;10008;48.682;9.016;2024-03-02T01:19:41;6.30;99.90
3406;DHT22;10008;48.682;9.016;2024-03-02T01:22:07;6.30;99.90
3406;DHT22;10008;48.682;9.016;2024-03-02T01:24:33;6.30;99.90
3406;DHT22;10008;48.682;9.016;2024-03-02T01:26:59;6.30;99.90
3406;DHT22;10008;48.682;9.016;2024-03-02T01:29:25;6.30;99.90
3406;DHT22;10008;48.682;9.016;2024-03-02T01:31:50;6.20;99.90
3406;DHT22;10008;48.682;9.016;2024-03-02T01:34:17;6.20;99.90
3406;DHT22;10008;48.682;9.016;2024-03-02T01:36:42;6.20;99.90
3406;DHT22;10008;48.682;9.016;2024-03-02T01:39:08;6.20;99.90
3406;DHT22;10008;48.682;9.016;2024-03-02T01:41:35;6.20;99.90
3406;DHT22;10008;48.682;9.016;2024-03-02T01:44:01;6.20;99.90
3406;DHT22;10008;48.682;9.016;2024-03-02T01:46:27;6.20;99.90
3406;DHT22;10008;48.682;9.016;2024-03-02T01:48:52;6.10;99.90
3406;DHT22;10008;48.682;9.016;2024-03-02T01:51:18;6.10;99.90
3406;DHT22;10008;48.682;9.016;2024-03-02T01:53:44;6.10;99.90
3406;DHT22;10008;48.682;9.016;2024-03-02T01:56:09;6.10;99.90
3406;DHT22;10008;48.682;9.016;2024-03-02T01:58:35;6.10;99.90
3406;DHT22;10008;48.682;9.016;2024-03-02T02:01:01;6.20;99.90
3406;DHT22;10008;48.682;9.016;2024-03-02T02:03:27;6.20;99.90
3406;DHT22;10008;48.682;9.016;2024-03-02T02:05:53;6.20;99.90
3406;DHT22;10008;48.682;9.016;2024-03-02T02:08:18;6.20;99.90
3406;DHT22;10008;48.682;9.016;2024-03-02T02:10:44;6.20;99.90
3406;DHT22;10008;48.682;9.016;2024-03-02T02:13:10;6.20;99.90
3406;DHT22;10008;48.682;9.016;2024-03-02T02:15:36;6.20;99.90
3406;DHT22;10008;48.682;9.016;2024-03-02T02:18:02;6.10;99.90
3406;DHT22;10008;48.682;9.016;2024-03-02T02:20:29;6.10;99.90
3406;DHT22;10008;48.682;9.016;2024-03-02T02:22:56;6.10;99.90
3406;DHT22;10008;48.682;9.016;2024-03-02T02:25:22;6.00;99.90
3406;DHT22;10008;48.682;9.016;2024-03-02T02:27:47;6.00;99.90
3406;DHT22;10008;48.682;9.016;2024-03-02T02:30:13;5.90;99.90
3406;DHT22;10008;48.682;9.016;2024-03-02T02:32:39;5.90;99.90
3406;DHT22;10008;48.682;9.016;2024-03-02T02:35:05;5.90;99.90
3406;DHT22;10008;48.682;9.016;2024-03-02T02:37:31;5.90;99.90
3406;DHT22;10008;48.682;9.016;2024-03-02T02:39:56;5.80;99.90
3406;DHT22;10008;48.682;9.016;2024-03-02T02:42:22;5.70;99.90
3406;DHT22;10008;48.682;9.016;2024-03-02T02:44:48;5.70;99.90
3406;DHT22;10008;48.682;9.016;2024-03-02T02:47:13;5.60;99.90
3406;DHT22;10008;48.682;9.016;2024-03-02T02:49:39;5.60;99.90
3406;DHT22;10008;48.682;9.016;2024-03-02T02:52:05;5.60;99.90
3406;DHT22;10008;48.682;9.016;2024-03-02T02:54:30;5.50;99.90
3406;DHT22;10008;48.682;9.016;2024-03-02T02:56:56;5.50;99.90
3406;DHT22;10008;48.682;9.016;2024-03-02T02:59:22;5.50;99.90
3406;DHT22;10008;48.682;9.016;2024-03-02T03:01:47;5.50;99.90
3406;DHT22;10008;48.682;9.016;2024-03-02T03:04:13;5.40;99.90
3406;DHT22;10008;48.682;9.016;2024-03-02T03:06:39;5.40;99.90
3406;DHT22;10008;48.682;9.016;2024-03-02T03:09:04;5.40;99.90
3406;DHT22;10008;48.682;9.016;2024-03-02T03:11:30;5.40;99.90
3406;DHT22;10008;48.682;9.016;2024-03-02T03:13:56;5.30;99.90
3406;DHT22;10008;48.682;9.016;2024-03-02T03:16:21;5.20;99.90
3406;DHT22;10008;48.682;9.016;2024-03-02T03:18:47;5.20;99.90
3406;DHT22;10008;48.682;9.016;2024-03-02T03:21:15;5.20;99.90
3406;DHT22;10008;48.682;9.016;2024-03-02T03:23:41;5.10;99.90
3406;DHT22;10008;48.682;9.016;2024-03-02T03:26:06;5.10;99.90
3406;DHT22;10008;48.682;9.016;2024-03-02T03:28:32;5.00;99.90
3406;DHT22;10008;48.682;9.016;2024-03-02T03:30:58;5.00;99.90
3406;DHT22;10008;48.682;9.016;2024-03-02T03:33:23;5.00;99.90
3406;DHT22;10008;48.682;9.016;2024-03-02T03:35:49;5.00;99.90
3406;DHT22;10008;48.682;9.016;2024-03-02T03:38:15;4.90;99.90
3406;DHT22;10008;48.682;9.016;2024-03-02T03:40:41;4.90;99.90
3406;DHT22;10008;48.682;9.016;2024-03-02T03:43:07;4.90;99.90
3406;DHT22;10008;48.682;9.016;2024-03-02T03:45:33;4.80;99.90
3406;DHT22;10008;48.682;9.016;2024-03-02T03:47:59;4.80;99.90
3406;DHT22;10008;48.682;9.016;2024-03-02T03:50:25;4.80;99.90
3406;DHT22;10008;48.682;9.016;2024-03-02T03:52:51;4.90;99.90
3406;DHT22;10008;48.682;9.016;2024-03-02T03:55:16;4.90;99.90
3406;DHT22;10008;48.682;9.016;2024-03-02T03:57:42;4.90;99.90
3406;DHT22;10008;48.682;9.016;2024-03-02T04:00:08;4.80;99.90
3406;DHT22;10008;48.682;9.016;2024-03-02T04:02:38;4.80;99.90
3406;DHT22;10008;48.682;9.016;2024-03-02T04:05:04;4.80;99.90
3406;DHT22;10008;48.682;9.016;2024-03-02T04:07:35;4.70;99.90
3406;DHT22;10008;48.682;9.016;2024-03-02T04:10:07;4.80;99.90
3406;DHT22;10008;48.682;9.016;2024-03-02T04:12:34;4.70;99.90
3406;DHT22;10008;48.682;9.016;2024-03-02T04:15:01;4.70;99.90
3406;DHT22;10008;48.682;9.016;2024-03-02T04:17:27;4.70;99.90
3406;DHT22;10008;48.682;9.016;2024-03-02T04:19:53;4.70;99.90
3406;DHT22;10008;48.682;9.016;2024-03-02T04:22:18;4.70;99.90
3406;DHT22;10008;48.682;9.016;2024-03-02T04:24:44;4.70;99.90
3406;DHT22;10008;48.682;9.016;2024-03-02T04:27:10;4.70;99.90
3406;DHT22;10008;48.682;9.016;2024-03-02T04:29:35;4.70;99.90
3406;DHT22;10008;48.682;9.016;2024-03-02T04:32:01;4.70;99.90
3406;DHT22;10008;48.682;9.016;2024-03-02T04:34:27;4.80;99.90
3406;DHT22;10008;48.682;9.016;2024-03-02T04:36:52;4.80;99.90
3406;DHT22;10008;48.682;9.016;2024-03-02T04:39:18;4.70;99.90
3406;DHT22;10008;48.682;9.016;2024-03-02T04:41:44;4.80;99.90
3406;DHT22;10008;48.682;9.016;2024-03-02T04:44:11;4.80;99.90
3406;DHT22;10008;48.682;9.016;2024-03-02T04:46:36;4.80;99.90
3406;DHT22;10008;48.682;9.016;2024-03-02T04:49:02;4.80;99.90
3406;DHT22;10008;48.682;9.016;2024-03-02T04:51:28;4.80;99.90
3406;DHT22;10008;48.682;9.016;2024-03-02T04:53:53;4.80;99.90
3406;DHT22;10008;48.682;9.016;2024-03-02T04:56:19;4.70;99.90
3406;DHT22;10008;48.682;9.016;2024-03-02T04:59:04;4.80;99.90
3406;DHT22;10008;48.682;9.016;2024-03-02T05:01:30;4.80;99.90
3406;DHT22;10008;48.682;9.016;2024-03-02T05:03:56;4.70;99.90
3406;DHT22;10008;48.682;9.016;2024-03-02T05:06:22;4.60;99.90
3406;DHT22;10008;48.682;9.016;2024-03-02T05:08:48;4.70;99.90
3406;DHT22;10008;48.682;9.016;2024-03-02T05:11:13;4.60;99.90
3406;DHT22;10008;48.682;9.016;2024-03-02T05:14:14;4.60;99.90
3406;DHT22;10008;48.682;9.016;2024-03-02T05:16:39;4.60;99.90
3406;DHT22;10008;48.682;9.016;2024-03-02T05:19:07;4.70;99.90
3406;DHT22;10008;48.682;9.016;2024-03-02T05:21:34;4.70;99.90
3406;DHT22;10008;48.682;9.016;2024-03-02T05:23:59;4.60;99.90
3406;DHT22;10008;48.682;9.016;2024-03-02T05:26:25;4.60;99.90
3406;DHT22;10008;48.682;9.016;2024-03-02T05:28:51;4.60;99.90
3406;DHT22;10008;48.682;9.016;2024-03-02T05:31:17;4.70;99.90
3406;DHT22;10008;48.682;9.016;2024-03-02T05:33:43;4.70;99.90
3406;DHT22;10008;48.682;9.016;2024-03-02T05:36:09;4.80;99.90
3406;DHT22;10008;48.682;9.016;2024-03-02T05:38:35;4.80;99.90
3406;DHT22;10008;48.682;9.016;2024-03-02T05:41:01;4.80;99.90
3406;DHT22;10008;48.682;9.016;2024-03-02T05:43:27;4.80;99.90
3406;DHT22;10008;48.682;9.016;2024-03-02T05:45:53;4.90;99.90
3406;DHT22;10008;48.682;9.016;2024-03-02T05:48:18;4.90;99.90
3406;DHT22;10008;48.682;9.016;2024-03-02T05:50:44;5.00;99.90
3406;DHT22;10008;48.682;9.016;2024-03-02T05:53:10;5.00;99.90
3406;DHT22;10008;48.682;9.016;2024-03-02T05:55:35;5.10;99.90
3406;DHT22;10008;48.682;9.016;2024-03-02T05:58:01;5.30;99.90
3406;DHT22;10008;48.682;9.016;2024-03-02T06:00:45;5.30;99.90
3406;DHT22;10008;48.682;9.016;2024-03-02T06:03:11;5.40;99.90
3406;DHT22;10008;48.682;9.016;2024-03-02T06:05:37;5.40;99.90
3406;DHT22;10008;48.682;9.016;2024-03-02T06:08:03;5.40;99.90
3406;DHT22;10008;48.682;9.016;2024-03-02T06:10:29;5.50;99.90
3406;DHT22;10008;48.682;9.016;2024-03-02T06:12:55;5.50;99.90
3406;DHT22;10008;48.682;9.016;2024-03-02T06:15:20;5.60;99.90
3406;DHT22;10008;48.682;9.016;2024-03-02T06:17:46;5.60;99.90
3406;DHT22;10008;48.682;9.016;2024-03-02T06:20:12;5.60;99.90
3406;DHT22;10008;48.682;9.016;2024-03-02T06:22:38;5.60;99.90
3406;DHT22;10008;48.682;9.016;2024-03-02T06:25:04;5.70;99.90
3406;DHT22;10008;48.682;9.016;2024-03-02T06:27:29;5.70;99.90
3406;DHT22;10008;48.682;9.016;2024-03-02T06:29:55;5.80;99.90
3406;DHT22;10008;48.682;9.016;2024-03-02T06:32:21;5.70;99.90
3406;DHT22;10008;48.682;9.016;2024-03-02T06:34:46;5.70;99.90
3406;DHT22;10008;48.682;9.016;2024-03-02T06:37:12;5.80;99.90
3406;DHT22;10008;48.682;9.016;2024-03-02T06:39:38;5.90;99.90
3406;DHT22;10008;48.682;9.016;2024-03-02T06:42:04;5.70;99.90
3406;DHT22;10008;48.682;9.016;2024-03-02T06:44:30;5.60;99.90
3406;DHT22;10008;48.682;9.016;2024-03-02T06:46:55;5.60;99.90
3406;DHT22;10008;48.682;9.016;2024-03-02T06:49:21;5.60;99.90
3406;DHT22;10008;48.682;9.016;2024-03-02T06:51:47;5.80;99.90
3406;DHT22;10008;48.682;9.016;2024-03-02T06:54:12;5.80;99.90
3406;DHT22;10008;48.682;9.016;2024-03-02T06:56:38;5.80;99.90
3406;DHT22;10008;48.682;9.016;2024-03-02T06:59:04;5.80;99.90
3406;DHT22;10008;48.682;9.016;2024-03-02T07:01:30;5.90;99.90
3406;DHT22;10008;48.682;9.016;2024-03-02T07:03:55;5.90;99.90
3406;DHT22;10008;48.682;9.016;2024-03-02T07:06:21;6.00;99.90
3406;DHT22;10008;48.682;9.016;2024-03-02T07:08:47;6.00;99.90
3406;DHT22;10008;48.682;9.016;2024-03-02T07:11:13;6.00;99.90
3406;DHT22;10008;48.682;9.016;2024-03-02T07:13:38;6.00;99.90
3406;DHT22;10008;48.682;9.016;2024-03-02T07:16:04;6.00;99.90
3406;DHT22;10008;48.682;9.016;2024-03-02T07:18:48;6.10;99.90
3406;DHT22;10008;48.682;9.016;2024-03-02T07:21:17;6.20;99.90
3406;DHT22;10008;48.682;9.016;2024-03-02T07:23:43;6.30;99.90
3406;DHT22;10008;48.682;9.016;2024-03-02T07:26:09;6.20;99.90
3406;DHT22;10008;48.682;9.016;2024-03-02T07:28:35;6.20;99.90
3406;DHT22;10008;48.682;9.016;2024-03-02T07:31:04;6.30;99.90
3406;DHT22;10008;48.682;9.016;2024-03-02T07:33:30;6.50;99.90
3406;DHT22;10008;48.682;9.016;2024-03-02T07:35:57;6.50;99.90
3406;DHT22;10008;48.682;9.016;2024-03-02T07:38:25;6.50;99.90
3406;DHT22;10008;48.682;9.016;2024-03-02T07:40:51;6.60;99.90
3406;DHT22;10008;48.682;9.016;2024-03-02T07:43:17;6.70;99.90
3406;DHT22;10008;48.682;9.016;2024-03-02T07:45:43;6.70;99.90
3406;DHT22;10008;48.682;9.016;2024-03-02T07:48:09;6.70;99.90
3406;DHT22;10008;48.682;9.016;2024-03-02T07:50:34;6.80;99.90
3406;DHT22;10008;48.682;9.016;2024-03-02T07:53:01;6.70;99.90
3406;DHT22;10008;48.682;9.016;2024-03-02T07:55:27;6.70;99.90
3406;DHT22;10008;48.682;9.016;2024-03-02T07:57:53;6.70;99.90
3406;DHT22;10008;48.682;9.016;2024-03-02T08:00:18;6.70;99.90
3406;DHT22;10008;48.682;9.016;2024-03-02T08:02:44;7.00;99.90
3406;DHT22;10008;48.682;9.016;2024-03-02T08:05:10;7.00;99.90
3406;DHT22;10008;48.682;9.016;2024-03-02T08:07:36;7.10;99.90
3406;DHT22;10008;48.682;9.016;2024-03-02T08:10:02;7.30;99.90
3406;DHT22;10008;48.682;9.016;2024-03-02T08:12:28;7.90;99.90
3406;DHT22;10008;48.682;9.016;2024-03-02T08:14:53;8.40;99.90
3406;DHT22;10008;48.682;9.016;2024-03-02T08:17:19;9.00;99.90
3406;DHT22;10008;48.682;9.016;2024-03-02T08:19:45;9.60;99.90
3406;DHT22;10008;48.682;9.016;2024-03-02T08:22:11;10.00;99.90
3406;DHT22;10008;48.682;9.016;2024-03-02T08:24:37;10.20;99.90
3406;DHT22;10008;48.682;9.016;2024-03-02T08:27:03;10.60;99.90
3406;DHT22;10008;48.682;9.016;2024-03-02T08:29:29;11.20;99.90
3406;DHT22;10008;48.682;9.016;2024-03-02T08:31:55;11.70;99.90
3406;DHT22;10008;48.682;9.016;2024-03-02T08:34:20;11.90;99.90
3406;DHT22;10008;48.682;9.016;2024-03-02T08:36:46;12.20;99.90
3406;DHT22;10008;48.682;9.016;2024-03-02T08:39:12;12.60;99.90
3406;DHT22;10008;48.682;9.016;2024-03-02T08:41:47;13.00;98.80
3406;DHT22;10008;48.682;9.016;2024-03-02T08:44:13;13.30;97.80
3406;DHT22;10008;48.682;9.016;2024-03-02T08:46:39;13.40;97.90
3406;DHT22;10008;48.682;9.016;2024-03-02T08:49:06;13.80;96.90
3406;DHT22;10008;48.682;9.016;2024-03-02T08:51:32;13.80;96.00
3406;DHT22;10008;48.682;9.016;2024-03-02T08:53:58;13.60;95.70
3406;DHT22;10008;48.682;9.016;2024-03-02T08:56:24;13.30;96.30
3406;DHT22;10008;48.682;9.016;2024-03-02T08:58:51;13.50;96.00
3406;DHT22;10008;48.682;9.016;2024-03-02T09:01:18;13.70;96.00
3406;DHT22;10008;48.682;9.016;2024-03-02T09:03:44;13.80;95.00
3406;DHT22;10008;48.682;9.016;2024-03-02T09:06:13;14.00;95.60
3406;DHT22;10008;48.682;9.016;2024-03-02T09:08:39;14.50;94.90
3406;DHT22;10008;48.682;9.016;2024-03-02T09:11:08;15.00;93.00
3406;DHT22;10008;48.682;9.016;2024-03-02T09:13:35;15.60;92.80
3406;DHT22;10008;48.682;9.016;2024-03-02T09:16:01;16.30;91.30
3406;DHT22;10008;48.682;9.016;2024-03-02T09:18:27;16.50;90.00
3406;DHT22;10008;48.682;9.016;2024-03-02T09:20:52;16.40;88.90
3406;DHT22;10008;48.682;9.016;2024-03-02T09:23:18;16.90;88.70
3406;DHT22;10008;48.682;9.016;2024-03-02T09:25:44;17.40;86.10
3406;DHT22;10008;48.682;9.016;2024-03-02T09:28:10;17.90;82.90
3406;DHT22;10008;48.682;9.016;2024-03-02T09:30:36;18.10;81.40
3406;DHT22;10008;48.682;9.016;2024-03-02T09:33:01;18.00;79.60
3406;DHT22;10008;48.682;9.016;2024-03-02T09:35:27;17.70;79.90
3406;DHT22;10008;48.682;9.016;2024-03-02T09:37:53;18.30;79.70
3406;DHT22;10008;48.682;9.016;2024-03-02T09:40:21;18.30;78.10
3406;DHT22;10008;48.682;9.016;2024-03-02T09:42:48;18.40;77.60
3406;DHT22;10008;48.682;9.016;2024-03-02T09:45:26;18.70;76.20
3406;DHT22;10008;48.682;9.016;2024-03-02T09:47:52;18.90;74.10
3406;DHT22;10008;48.682;9.016;2024-03-02T09:50:18;19.30;74.60
3406;DHT22;10008;48.682;9.016;2024-03-02T09:52:44;19.50;72.20
3406;DHT22;10008;48.682;9.016;2024-03-02T09:55:14;19.50;71.40
3406;DHT22;10008;48.682;9.016;2024-03-02T09:57:41;19.80;73.20
3406;DHT22;10008;48.682;9.016;2024-03-02T10:00:10;20.50;70.70
3406;DHT22;10008;48.682;9.016;2024-03-02T10:02:41;20.20;67.20
3406;DHT22;10008;48.682;9.016;2024-03-02T10:05:10;20.30;69.50
3406;DHT22;10008;48.682;9.016;2024-03-02T10:07:37;20.40;70.00
3406;DHT22;10008;48.682;9.016;2024-03-02T10:10:13;20.00;67.80
3406;DHT22;10008;48.682;9.016;2024-03-02T10:12:39;19.90;69.80
3406;DHT22;10008;48.682;9.016;2024-03-02T10:15:06;19.60;69.90
3406;DHT22;10008;48.682;9.016;2024-03-02T10:17:33;19.60;67.70
3406;DHT22;10008;48.682;9.016;2024-03-02T10:19:59;19.50;70.00
3406;DHT22;10008;48.682;9.016;2024-03-02T10:22:24;19.40;68.50
3406;DHT22;10008;48.682;9.016;2024-03-02T10:24:52;19.00;69.80
3406;DHT22;10008;48.682;9.016;2024-03-02T10:27:26;19.20;69.80
3406;DHT22;10008;48.682;9.016;2024-03-02T10:29:52;19.00;68.70
3406;DHT22;10008;48.682;9.016;2024-03-02T10:32:22;19.50;70.60
3406;DHT22;10008;48.682;9.016;2024-03-02T10:34:48;19.70;69.20
3406;DHT22;10008;48.682;9.016;2024-03-02T10:37:15;20.00;69.00
3406;DHT22;10008;48.682;9.016;2024-03-02T10:39:42;20.00;66.40
3406;DHT22;10008;48.682;9.016;2024-03-02T10:42:08;20.20;64.40
3406;DHT22;10008;48.682;9.016;2024-03-02T10:44:34;20.40;65.90
3406;DHT22;10008;48.682;9.016;2024-03-02T10:47:05;21.00;62.70
3406;DHT22;10008;48.682;9.016;2024-03-02T10:49:31;21.00;63.00
3406;DHT22;10008;48.682;9.016;2024-03-02T10:51:58;21.10;61.80
3406;DHT22;10008;48.682;9.016;2024-03-02T10:54:24;21.30;61.70
3406;DHT22;10008;48.682;9.016;2024-03-02T10:56:58;21.90;61.30
3406;DHT22;10008;48.682;9.016;2024-03-02T10:59:35;22.40;59.60
3406;DHT22;10008;48.682;9.016;2024-03-02T11:02:02;22.30;57.00
3406;DHT22;10008;48.682;9.016;2024-03-02T11:04:29;22.00;56.20
3406;DHT22;10008;48.682;9.016;2024-03-02T11:07:06;22.00;56.60
3406;DHT22;10008;48.682;9.016;2024-03-02T11:09:38;21.60;57.10
3406;DHT22;10008;48.682;9.016;2024-03-02T11:14:32;21.90;56.70
3406;DHT22;10008;48.682;9.016;2024-03-02T11:17:03;22.00;55.70
3406;DHT22;10008;48.682;9.016;2024-03-02T11:19:29;22.40;57.90
3406;DHT22;10008;48.682;9.016;2024-03-02T11:21:56;23.40;55.20
3406;DHT22;10008;48.682;9.016;2024-03-02T11:26:59;22.50;54.60
3406;DHT22;10008;48.682;9.016;2024-03-02T11:32:26;21.80;54.30
3406;DHT22;10008;48.682;9.016;2024-03-02T11:34:52;21.50;55.70
3406;DHT22;10008;48.682;9.016;2024-03-02T11:37:19;22.10;57.80
3406;DHT22;10008;48.682;9.016;2024-03-02T11:39:48;21.80;56.40
3406;DHT22;10008;48.682;9.016;2024-03-02T11:42:15;21.10;55.50
3406;DHT22;10008;48.682;9.016;2024-03-02T11:44:48;21.00;57.50
3406;DHT22;10008;48.682;9.016;2024-03-02T11:47:15;21.60;57.40
3406;DHT22;10008;48.682;9.016;2024-03-02T11:49:45;21.10;56.40
3406;DHT22;10008;48.682;9.016;2024-03-02T11:52:13;21.30;56.80
3406;DHT22;10008;48.682;9.016;2024-03-02T11:54:42;21.30;55.20
3406;DHT22;10008;48.682;9.016;2024-03-02T11:57:17;21.30;55.30
3406;DHT22;10008;48.682;9.016;2024-03-02T11:59:43;21.40;55.80
3406;DHT22;10008;48.682;9.016;2024-03-02T12:02:20;21.50;55.80
3406;DHT22;10008;48.682;9.016;2024-03-02T12:04:48;21.60;57.40
3406;DHT22;10008;48.682;9.016;2024-03-02T12:07:21;22.20;55.90
3406;DHT22;10008;48.682;9.016;2024-03-02T12:09:59;22.80;54.40
3406;DHT22;10008;48.682;9.016;2024-03-02T12:12:25;22.40;53.50
3406;DHT22;10008;48.682;9.016;2024-03-02T12:14:53;22.50;57.10
3406;DHT22;10008;48.682;9.016;2024-03-02T12:17:21;22.90;55.50
3406;DHT22;10008;48.682;9.016;2024-03-02T12:19:47;22.80;53.80
3406;DHT22;10008;48.682;9.016;2024-03-02T12:22:13;22.60;53.60
3406;DHT22;10008;48.682;9.016;2024-03-02T12:24:39;22.90;56.50
3406;DHT22;10008;48.682;9.016;2024-03-02T12:27:05;22.80;52.50
3406;DHT22;10008;48.682;9.016;2024-03-02T12:29:32;22.60;53.00
3406;DHT22;10008;48.682;9.016;2024-03-02T12:31:59;23.60;54.60
3406;DHT22;10008;48.682;9.016;2024-03-02T12:34:27;24.20;50.60
3406;DHT22;10008;48.682;9.016;2024-03-02T12:36:53;24.20;51.30
3406;DHT22;10008;48.682;9.016;2024-03-02T12:39:19;24.00;50.60
3406;DHT22;10008;48.682;9.016;2024-03-02T12:41:49;23.70;50.20
3406;DHT22;10008;48.682;9.016;2024-03-02T12:44:19;23.80;50.90
3406;DHT22;10008;48.682;9.016;2024-03-02T12:46:46;23.90;50.30
3406;DHT22;10008;48.682;9.016;2024-03-02T12:49:14;24.00;50.20
3406;DHT22;10008;48.682;9.016;2024-03-02T12:51:42;23.20;49.90
3406;DHT22;10008;48.682;9.016;2024-03-02T12:54:09;23.20;51.40
3406;DHT22;10008;48.682;9.016;2024-03-02T12:56:40;23.30;49.90
3406;DHT22;10008;48.682;9.016;2024-03-02T12:59:07;23.20;49.90
3406;DHT22;10008;48.682;9.016;2024-03-02T13:01:36;23.30;49.90
3406;DHT22;10008;48.682;9.016;2024-03-02T13:04:02;23.20;50.00
3406;DHT22;10008;48.682;9.016;2024-03-02T13:06:29;23.00;49.90
3406;DHT22;10008;48.682;9.016;2024-03-02T13:08:54;23.00;49.50
3406;DHT22;10008;48.682;9.016;2024-03-02T13:11:22;23.00;52.10
3406;DHT22;10008;48.682;9.016;2024-03-02T13:13:49;23.30;51.30
3406;DHT22;10008;48.682;9.016;2024-03-02T13:16:15;22.60;52.60
3406;DHT22;10008;48.682;9.016;2024-03-02T13:18:42;22.00;52.90
3406;DHT22;10008;48.682;9.016;2024-03-02T13:21:09;22.10;52.80
3406;DHT22;10008;48.682;9.016;2024-03-02T13:23:35;22.20;51.10
3406;DHT22;10008;48.682;9.016;2024-03-02T13:26:01;22.50;51.60
3406;DHT22;10008;48.682;9.016;2024-03-02T13:28:27;22.50;53.20
3406;DHT22;10008;48.682;9.016;2024-03-02T13:30:53;21.70;54.40
3406;DHT22;10008;48.682;9.016;2024-03-02T13:33:19;21.10;52.70
3406;DHT22;10008;48.682;9.016;2024-03-02T13:35:51;20.70;53.00
3406;DHT22;10008;48.682;9.016;2024-03-02T13:38:19;21.30;51.90
3406;DHT22;10008;48.682;9.016;2024-03-02T13:40:46;21.20;50.60
3406;DHT22;10008;48.682;9.016;2024-03-02T13:43:12;20.90;51.70
3406;DHT22;10008;48.682;9.016;2024-03-02T13:45:38;20.50;54.40
3406;DHT22;10008;48.682;9.016;2024-03-02T13:48:05;20.60;55.20
3406;DHT22;10008;48.682;9.016;2024-03-02T13:50:31;20.00;58.10
3406;DHT22;10008;48.682;9.016;2024-03-02T13:52:57;19.20;59.80
3406;DHT22;10008;48.682;9.016;2024-03-02T13:55:23;18.00;57.00
3406;DHT22;10008;48.682;9.016;2024-03-02T13:57:48;17.90;63.00
3406;DHT22;10008;48.682;9.016;2024-03-02T14:00:19;18.00;64.00
3406;DHT22;10008;48.682;9.016;2024-03-02T14:02:48;18.00;64.60
3406;DHT22;10008;48.682;9.016;2024-03-02T14:05:17;18.30;62.70
3406;DHT22;10008;48.682;9.016;2024-03-02T14:07:43;18.30;63.10
3406;DHT22;10008;48.682;9.016;2024-03-02T14:10:09;18.20;60.60
3406;DHT22;10008;48.682;9.016;2024-03-02T14:12:36;18.40;59.70
3406;DHT22;10008;48.682;9.016;2024-03-02T14:15:02;18.20;59.50
3406;DHT22;10008;48.682;9.016;2024-03-02T14:17:29;18.90;58.80
3406;DHT22;10008;48.682;9.016;2024-03-02T14:19:57;19.40;64.70
3406;DHT22;10008;48.682;9.016;2024-03-02T14:22:24;19.60;61.70
3406;DHT22;10008;48.682;9.016;2024-03-02T14:24:50;19.30;58.20
3406;DHT22;10008;48.682;9.016;2024-03-02T14:27:16;19.50;59.20
3406;DHT22;10008;48.682;9.016;2024-03-02T14:29:43;20.20;60.40
3406;DHT22;10008;48.682;9.016;2024-03-02T14:32:09;19.90;57.50
3406;DHT22;10008;48.682;9.016;2024-03-02T14:34:34;20.30;59.70
3406;DHT22;10008;48.682;9.016;2024-03-02T14:37:00;20.20;56.40
3406;DHT22;10008;48.682;9.016;2024-03-02T14:39:26;19.30;56.90
3406;DHT22;10008;48.682;9.016;2024-03-02T14:41:52;19.00;56.60
3406;DHT22;10008;48.682;9.016;2024-03-02T14:44:18;19.60;57.00
3406;DHT22;10008;48.682;9.016;2024-03-02T14:46:47;19.70;56.60
3406;DHT22;10008;48.682;9.016;2024-03-02T14:49:13;19.60;58.10
3406;DHT22;10008;48.682;9.016;2024-03-02T14:51:39;20.20;57.00
3406;DHT22;10008;48.682;9.016;2024-03-02T14:54:05;20.60;57.80
3406;DHT22;10008;48.682;9.016;2024-03-02T14:56:31;20.00;55.80
3406;DHT22;10008;48.682;9.016;2024-03-02T14:58:56;20.40;56.10
3406;DHT22;10008;48.682;9.016;2024-03-02T15:01:22;20.10;55.20
3406;DHT22;10008;48.682;9.016;2024-03-02T15:03:51;20.00;58.70
3406;DHT22;10008;48.682;9.016;2024-03-02T15:06:17;19.60;58.90
3406;DHT22;10008;48.682;9.016;2024-03-02T15:08:44;19.70;56.30
3406;DHT22;10008;48.682;9.016;2024-03-02T15:11:12;19.50;56.70
3406;DHT22;10008;48.682;9.016;2024-03-02T15:13:38;19.00;57.40
3406;DHT22;10008;48.682;9.016;2024-03-02T15:16:04;18.50;58.30
3406;DHT22;10008;48.682;9.016;2024-03-02T15:18:30;18.20;59.10
3406;DHT22;10008;48.682;9.016;2024-03-02T15:20:56;17.80;59.80
3406;DHT22;10008;48.682;9.016;2024-03-02T15:23:22;17.10;60.40
3406;DHT22;10008;48.682;9.016;2024-03-02T15:25:47;16.90;62.80
3406;DHT22;10008;48.682;9.016;2024-03-02T15:28:13;16.70;63.90
3406;DHT22;10008;48.682;9.016;2024-03-02T15:30:39;16.40;64.20
3406;DHT22;10008;48.682;9.016;2024-03-02T15:33:05;16.20;64.00
3406;DHT22;10008;48.682;9.016;2024-03-02T15:35:30;15.90;64.30
3406;DHT22;10008;48.682;9.016;2024-03-02T15:37:56;15.70;65.90
3406;DHT22;10008;48.682;9.016;2024-03-02T15:40:22;15.60;66.00
3406;DHT22;10008;48.682;9.016;2024-03-02T15:42:48;15.50;67.30
3406;DHT22;10008;48.682;9.016;2024-03-02T15:45:14;15.40;68.30
3406;DHT22;10008;48.682;9.016;2024-03-02T15:47:39;15.20;68.40
3406;DHT22;10008;48.682;9.016;2024-03-02T15:50:05;15.10;67.80
3406;DHT22;10008;48.682;9.016;2024-03-02T15:52:32;14.90;67.20
3406;DHT22;10008;48.682;9.016;2024-03-02T15:54:58;14.80;67.70
3406;DHT22;10008;48.682;9.016;2024-03-02T15:57:24;14.80;67.90
3406;DHT22;10008;48.682;9.016;2024-03-02T15:59:50;14.70;67.30
3406;DHT22;10008;48.682;9.016;2024-03-02T16:02:16;14.60;66.50
3406;DHT22;10008;48.682;9.016;2024-03-02T16:04:42;14.50;67.10